sensor_id;sensor_type;location;lat;lon;timestamp;P1;durP1;ratioP1;P2;durP2;ratioP2
39676;SDS011;27789;50.840;4.386;2022-10-22T00:01:12;11.25;;;4.63;;
39676;SDS011;27789;50.840;4.386;2022-10-22T00:03:38;11.27;;;4.28;;
39676;SDS011;27789;50.840;4.386;2022-10-22T00:06:03;12.43;;;4.38;;
39676;SDS011;27789;50.840;4.386;2022-10-22T00:08:29;11.88;;;4.65;;
39676;SDS011;27789;50.840;4.386;2022-10-22T00:10:55;13.70;;;4.15;;
39676;SDS011;27789;50.840;4.386;2022-10-22T00:13:21;13.73;;;4.20;;
39676;SDS011;27789;50.840;4.386;2022-10-22T00:15:46;13.02;;;4.13;;
39676;SDS011;27789;50.840;4.386;2022-10-22T00:18:12;13.43;;;3.85;;
39676;SDS011;27789;50.840;4.386;2022-10-22T00:20:38;11.85;;;3.60;;
39676;SDS011;27789;50.840;4.386;2022-10-22T00:23:03;13.20;;;3.97;;
39676;SDS011;27789;50.840;4.386;2022-10-22T00:25:29;9.68;;;3.33;;
39676;SDS011;27789;50.840;4.386;2022-10-22T00:27:55;13.70;;;3.97;;
39676;SDS011;27789;50.840;4.386;2022-10-22T00:30:20;9.32;;;4.15;;
39676;SDS011;27789;50.840;4.386;2022-10-22T00:32:46;15.02;;;4.80;;
39676;SDS011;27789;50.840;4.386;2022-10-22T00:35:12;12.02;;;4.45;;
39676;SDS011;27789;50.840;4.386;2022-10-22T00:37:37;12.23;;;4.45;;
39676;SDS011;27789;50.840;4.386;2022-10-22T00:40:03;14.90;;;4.57;;
39676;SDS011;27789;50.840;4.386;2022-10-22T00:42:29;14.77;;;3.88;;
39676;SDS011;27789;50.840;4.386;2022-10-22T00:47:39;14.68;;;5.07;;
39676;SDS011;27789;50.840;4.386;2022-10-22T00:50:13;11.82;;;4.13;;
39676;SDS011;27789;50.840;4.386;2022-10-22T00:52:42;7.28;;;3.90;;
39676;SDS011;27789;50.840;4.386;2022-10-22T00:55:11;17.95;;;4.22;;
39676;SDS011;27789;50.840;4.386;2022-10-22T00:57:38;9.52;;;3.80;;
39676;SDS011;27789;50.840;4.386;2022-10-22T01:00:05;10.88;;;4.03;;
39676;SDS011;27789;50.840;4.386;2022-10-22T01:02:31;13.98;;;4.57;;
39676;SDS011;27789;50.840;4.386;2022-10-22T01:04:57;12.68;;;3.83;;
39676;SDS011;27789;50.840;4.386;2022-10-22T01:07:23;13.65;;;3.97;;
39676;SDS011;27789;50.840;4.386;2022-10-22T01:09:54;10.07;;;4.00;;
39676;SDS011;27789;50.840;4.386;2022-10-22T01:15:10;10.45;;;4.00;;
39676;SDS011;27789;50.840;4.386;2022-10-22T01:23:00;13.27;;;4.30;;
39676;SDS011;27789;50.840;4.386;2022-10-22T01:25:49;17.33;;;4.68;;
39676;SDS011;27789;50.840;4.386;2022-10-22T01:31:12;12.77;;;3.78;;
39676;SDS011;27789;50.840;4.386;2022-10-22T01:33:40;14.48;;;3.35;;
39676;SDS011;27789;50.840;4.386;2022-10-22T01:36:09;10.98;;;3.80;;
39676;SDS011;27789;50.840;4.386;2022-10-22T01:38:37;10.95;;;3.42;;
39676;SDS011;27789;50.840;4.386;2022-10-22T01:41:04;8.80;;;3.47;;
39676;SDS011;27789;50.840;4.386;2022-10-22T01:43:31;12.80;;;3.58;;
39676;SDS011;27789;50.840;4.386;2022-10-22T01:45:57;14.82;;;3.80;;
39676;SDS011;27789;50.840;4.386;2022-10-22T01:51:15;16.60;;;3.42;;
39676;SDS011;27789;50.840;4.386;2022-10-22T02:02:12;6.25;;;2.90;;
39676;SDS011;27789;50.840;4.386;2022-10-22T02:04:43;14.85;;;3.50;;
39676;SDS011;27789;50.840;4.386;2022-10-22T02:07:18;9.82;;;3.10;;
39676;SDS011;27789;50.840;4.386;2022-10-22T02:09:47;13.90;;;4.03;;
39676;SDS011;27789;50.840;4.386;2022-10-22T02:12:14;12.27;;;3.40;;
39676;SDS011;27789;50.840;4.386;2022-10-22T02:14:42;11.98;;;3.33;;
39676;SDS011;27789;50.840;4.386;2022-10-22T02:17:11;11.48;;;2.90;;
39676;SDS011;27789;50.840;4.386;2022-10-22T02:22:11;12.45;;;3.28;;
39676;SDS011;27789;50.840;4.386;2022-10-22T02:24:37;13.65;;;3.38;;
39676;SDS011;27789;50.840;4.386;2022-10-22T02:32:08;16.73;;;3.75;;
39676;SDS011;27789;50.840;4.386;2022-10-22T02:37:05;10.10;;;2.95;;
39676;SDS011;27789;50.840;4.386;2022-10-22T02:39:32;13.90;;;3.17;;
39676;SDS011;27789;50.840;4.386;2022-10-22T02:42:00;11.07;;;2.45;;
39676;SDS011;27789;50.840;4.386;2022-10-22T02:44:26;11.50;;;3.05;;
39676;SDS011;27789;50.840;4.386;2022-10-22T02:46:52;10.15;;;2.95;;
39676;SDS011;27789;50.840;4.386;2022-10-22T02:49:17;13.60;;;2.60;;
39676;SDS011;27789;50.840;4.386;2022-10-22T02:51:43;11.48;;;2.70;;
39676;SDS011;27789;50.840;4.386;2022-10-22T02:54:09;9.65;;;2.40;;
39676;SDS011;27789;50.840;4.386;2022-10-22T02:56:34;8.63;;;2.17;;
39676;SDS011;27789;50.840;4.386;2022-10-22T02:59:00;9.65;;;3.08;;
39676;SDS011;27789;50.840;4.386;2022-10-22T03:01:25;12.00;;;2.58;;
39676;SDS011;27789;50.840;4.386;2022-10-22T03:03:51;9.27;;;2.60;;
39676;SDS011;27789;50.840;4.386;2022-10-22T03:06:16;10.38;;;2.60;;
39676;SDS011;27789;50.840;4.386;2022-10-22T03:08:42;12.10;;;3.50;;
39676;SDS011;27789;50.840;4.386;2022-10-22T03:11:08;7.18;;;3.10;;
39676;SDS011;27789;50.840;4.386;2022-10-22T03:13:33;12.52;;;2.42;;
39676;SDS011;27789;50.840;4.386;2022-10-22T03:15:59;13.95;;;3.80;;
39676;SDS011;27789;50.840;4.386;2022-10-22T03:18:25;9.50;;;2.63;;
39676;SDS011;27789;50.840;4.386;2022-10-22T03:20:58;10.75;;;2.33;;
39676;SDS011;27789;50.840;4.386;2022-10-22T03:23:36;15.93;;;3.75;;
39676;SDS011;27789;50.840;4.386;2022-10-22T03:26:03;10.57;;;2.38;;
39676;SDS011;27789;50.840;4.386;2022-10-22T03:28:29;9.90;;;2.42;;
39676;SDS011;27789;50.840;4.386;2022-10-22T03:30:55;13.43;;;2.47;;
39676;SDS011;27789;50.840;4.386;2022-10-22T03:33:20;7.93;;;2.92;;
39676;SDS011;27789;50.840;4.386;2022-10-22T03:35:46;8.82;;;3.10;;
39676;SDS011;27789;50.840;4.386;2022-10-22T03:38:12;9.00;;;2.13;;
39676;SDS011;27789;50.840;4.386;2022-10-22T03:40:39;10.93;;;2.50;;
39676;SDS011;27789;50.840;4.386;2022-10-22T03:43:06;17.60;;;2.70;;
39676;SDS011;27789;50.840;4.386;2022-10-22T03:45:32;11.75;;;2.67;;
39676;SDS011;27789;50.840;4.386;2022-10-22T03:47:57;9.95;;;2.30;;
39676;SDS011;27789;50.840;4.386;2022-10-22T03:50:23;7.75;;;2.17;;
39676;SDS011;27789;50.840;4.386;2022-10-22T03:52:49;12.63;;;2.40;;
39676;SDS011;27789;50.840;4.386;2022-10-22T03:55:14;9.43;;;2.08;;
39676;SDS011;27789;50.840;4.386;2022-10-22T03:57:40;7.03;;;2.20;;
39676;SDS011;27789;50.840;4.386;2022-10-22T04:00:06;18.40;;;2.60;;
39676;SDS011;27789;50.840;4.386;2022-10-22T04:02:32;9.80;;;2.78;;
39676;SDS011;27789;50.840;4.386;2022-10-22T04:04:58;9.57;;;2.25;;
39676;SDS011;27789;50.840;4.386;2022-10-22T04:07:24;12.90;;;2.63;;
39676;SDS011;27789;50.840;4.386;2022-10-22T04:09:49;13.20;;;2.30;;
39676;SDS011;27789;50.840;4.386;2022-10-22T04:12:15;10.27;;;2.40;;
39676;SDS011;27789;50.840;4.386;2022-10-22T04:14:40;7.10;;;2.22;;
39676;SDS011;27789;50.840;4.386;2022-10-22T04:17:06;11.65;;;2.50;;
39676;SDS011;27789;50.840;4.386;2022-10-22T04:19:32;7.32;;;2.17;;
39676;SDS011;27789;50.840;4.386;2022-10-22T04:21:58;10.23;;;1.90;;
39676;SDS011;27789;50.840;4.386;2022-10-22T04:24:23;11.55;;;2.83;;
39676;SDS011;27789;50.840;4.386;2022-10-22T04:26:50;11.20;;;3.20;;
39676;SDS011;27789;50.840;4.386;2022-10-22T04:29:18;6.95;;;2.38;;
39676;SDS011;27789;50.840;4.386;2022-10-22T04:31:44;11.55;;;2.55;;
39676;SDS011;27789;50.840;4.386;2022-10-22T04:34:09;10.18;;;2.70;;
39676;SDS011;27789;50.840;4.386;2022-10-22T04:36:35;7.90;;;2.20;;
39676;SDS011;27789;50.840;4.386;2022-10-22T04:39:01;10.75;;;3.08;;
39676;SDS011;27789;50.840;4.386;2022-10-22T04:41:30;12.95;;;2.60;;
39676;SDS011;27789;50.840;4.386;2022-10-22T04:43:58;12.40;;;3.97;;
39676;SDS011;27789;50.840;4.386;2022-10-22T04:46:26;10.13;;;2.20;;
39676;SDS011;27789;50.840;4.386;2022-10-22T04:48:53;11.77;;;2.17;;
39676;SDS011;27789;50.840;4.386;2022-10-22T04:51:19;7.90;;;2.75;;
39676;SDS011;27789;50.840;4.386;2022-10-22T04:53:46;9.57;;;2.25;;
39676;SDS011;27789;50.840;4.386;2022-10-22T04:56:14;14.32;;;2.28;;
39676;SDS011;27789;50.840;4.386;2022-10-22T04:58:44;11.57;;;2.63;;
39676;SDS011;27789;50.840;4.386;2022-10-22T05:01:14;9.70;;;2.05;;
39676;SDS011;27789;50.840;4.386;2022-10-22T05:03:42;6.20;;;2.20;;
39676;SDS011;27789;50.840;4.386;2022-10-22T05:06:08;11.90;;;3.13;;
39676;SDS011;27789;50.840;4.386;2022-10-22T05:08:34;13.63;;;2.97;;
39676;SDS011;27789;50.840;4.386;2022-10-22T05:11:00;11.07;;;2.35;;
39676;SDS011;27789;50.840;4.386;2022-10-22T05:13:33;11.00;;;2.65;;
39676;SDS011;27789;50.840;4.386;2022-10-22T05:16:00;14.40;;;2.10;;
39676;SDS011;27789;50.840;4.386;2022-10-22T05:18:26;6.00;;;2.03;;
39676;SDS011;27789;50.840;4.386;2022-10-22T05:20:51;7.38;;;2.00;;
39676;SDS011;27789;50.840;4.386;2022-10-22T05:23:17;7.65;;;2.15;;
39676;SDS011;27789;50.840;4.386;2022-10-22T05:25:42;10.45;;;2.50;;
39676;SDS011;27789;50.840;4.386;2022-10-22T05:28:08;11.60;;;2.05;;
39676;SDS011;27789;50.840;4.386;2022-10-22T05:30:33;12.90;;;2.33;;
39676;SDS011;27789;50.840;4.386;2022-10-22T05:32:59;9.77;;;3.53;;
39676;SDS011;27789;50.840;4.386;2022-10-22T05:35:25;10.30;;;1.80;;
39676;SDS011;27789;50.840;4.386;2022-10-22T05:37:50;11.73;;;1.95;;
39676;SDS011;27789;50.840;4.386;2022-10-22T05:40:16;11.27;;;2.10;;
39676;SDS011;27789;50.840;4.386;2022-10-22T05:42:41;12.02;;;2.58;;
39676;SDS011;27789;50.840;4.386;2022-10-22T05:45:07;8.75;;;2.58;;
39676;SDS011;27789;50.840;4.386;2022-10-22T05:47:33;13.25;;;2.60;;
39676;SDS011;27789;50.840;4.386;2022-10-22T05:49:58;11.43;;;3.13;;
39676;SDS011;27789;50.840;4.386;2022-10-22T05:52:24;15.68;;;2.63;;
39676;SDS011;27789;50.840;4.386;2022-10-22T05:54:50;6.72;;;2.80;;
39676;SDS011;27789;50.840;4.386;2022-10-22T05:57:16;11.18;;;2.38;;
39676;SDS011;27789;50.840;4.386;2022-10-22T05:59:41;14.43;;;2.50;;
39676;SDS011;27789;50.840;4.386;2022-10-22T06:02:10;8.77;;;2.22;;
39676;SDS011;27789;50.840;4.386;2022-10-22T06:04:36;5.78;;;2.10;;
39676;SDS011;27789;50.840;4.386;2022-10-22T06:07:01;12.40;;;2.10;;
39676;SDS011;27789;50.840;4.386;2022-10-22T06:09:28;8.57;;;2.40;;
39676;SDS011;27789;50.840;4.386;2022-10-22T06:11:57;11.93;;;2.75;;
39676;SDS011;27789;50.840;4.386;2022-10-22T06:14:23;11.48;;;2.50;;
39676;SDS011;27789;50.840;4.386;2022-10-22T06:16:50;11.57;;;2.30;;
39676;SDS011;27789;50.840;4.386;2022-10-22T06:19:17;7.75;;;2.05;;
39676;SDS011;27789;50.840;4.386;2022-10-22T06:21:44;17.42;;;2.50;;
39676;SDS011;27789;50.840;4.386;2022-10-22T06:24:10;18.23;;;3.50;;
39676;SDS011;27789;50.840;4.386;2022-10-22T06:26:36;7.97;;;2.10;;
39676;SDS011;27789;50.840;4.386;2022-10-22T06:29:02;16.77;;;2.35;;
39676;SDS011;27789;50.840;4.386;2022-10-22T06:31:28;8.57;;;2.58;;
39676;SDS011;27789;50.840;4.386;2022-10-22T06:36:34;10.35;;;1.95;;
39676;SDS011;27789;50.840;4.386;2022-10-22T06:39:00;13.57;;;2.95;;
39676;SDS011;27789;50.840;4.386;2022-10-22T06:41:26;14.32;;;2.63;;
39676;SDS011;27789;50.840;4.386;2022-10-22T06:43:52;7.20;;;2.20;;
39676;SDS011;27789;50.840;4.386;2022-10-22T06:46:20;9.50;;;2.30;;
39676;SDS011;27789;50.840;4.386;2022-10-22T06:48:49;5.28;;;1.98;;
39676;SDS011;27789;50.840;4.386;2022-10-22T06:51:20;13.95;;;2.63;;
39676;SDS011;27789;50.840;4.386;2022-10-22T06:53:46;12.52;;;2.72;;
39676;SDS011;27789;50.840;4.386;2022-10-22T06:56:13;9.10;;;2.42;;
39676;SDS011;27789;50.840;4.386;2022-10-22T06:58:40;13.23;;;2.35;;
39676;SDS011;27789;50.840;4.386;2022-10-22T07:01:07;8.02;;;2.20;;
39676;SDS011;27789;50.840;4.386;2022-10-22T07:03:34;8.85;;;2.30;;
39676;SDS011;27789;50.840;4.386;2022-10-22T07:06:01;12.82;;;3.00;;
39676;SDS011;27789;50.840;4.386;2022-10-22T07:08:28;11.27;;;2.35;;
39676;SDS011;27789;50.840;4.386;2022-10-22T07:10:54;12.65;;;2.67;;
39676;SDS011;27789;50.840;4.386;2022-10-22T07:13:20;10.85;;;2.30;;
39676;SDS011;27789;50.840;4.386;2022-10-22T07:15:50;14.50;;;3.15;;
39676;SDS011;27789;50.840;4.386;2022-10-22T07:18:20;6.03;;;1.98;;
39676;SDS011;27789;50.840;4.386;2022-10-22T07:20:46;15.55;;;2.65;;
39676;SDS011;27789;50.840;4.386;2022-10-22T07:23:13;9.13;;;2.55;;
39676;SDS011;27789;50.840;4.386;2022-10-22T07:25:39;12.35;;;2.83;;
39676;SDS011;27789;50.840;4.386;2022-10-22T07:28:05;12.18;;;2.90;;
39676;SDS011;27789;50.840;4.386;2022-10-22T07:30:31;17.23;;;2.40;;
39676;SDS011;27789;50.840;4.386;2022-10-22T07:32:57;9.63;;;2.03;;
39676;SDS011;27789;50.840;4.386;2022-10-22T07:35:23;10.73;;;1.98;;
39676;SDS011;27789;50.840;4.386;2022-10-22T07:37:49;11.52;;;3.35;;
39676;SDS011;27789;50.840;4.386;2022-10-22T07:40:14;13.80;;;2.42;;
39676;SDS011;27789;50.840;4.386;2022-10-22T07:42:40;17.80;;;3.05;;
39676;SDS011;27789;50.840;4.386;2022-10-22T07:45:06;6.93;;;2.25;;
39676;SDS011;27789;50.840;4.386;2022-10-22T07:47:32;8.60;;;2.53;;
39676;SDS011;27789;50.840;4.386;2022-10-22T07:49:57;13.90;;;2.28;;
39676;SDS011;27789;50.840;4.386;2022-10-22T07:52:23;13.18;;;2.78;;
39676;SDS011;27789;50.840;4.386;2022-10-22T07:54:48;8.57;;;2.38;;
39676;SDS011;27789;50.840;4.386;2022-10-22T07:57:14;9.70;;;3.10;;
39676;SDS011;27789;50.840;4.386;2022-10-22T07:59:39;6.57;;;2.63;;
39676;SDS011;27789;50.840;4.386;2022-10-22T08:02:05;7.90;;;2.28;;
39676;SDS011;27789;50.840;4.386;2022-10-22T08:04:31;5.95;;;2.30;;
39676;SDS011;27789;50.840;4.386;2022-10-22T08:06:57;9.45;;;2.47;;
39676;SDS011;27789;50.840;4.386;2022-10-22T08:09:22;11.63;;;2.72;;
39676;SDS011;27789;50.840;4.386;2022-10-22T08:11:48;10.00;;;2.58;;
39676;SDS011;27789;50.840;4.386;2022-10-22T08:14:14;11.50;;;2.75;;
39676;SDS011;27789;50.840;4.386;2022-10-22T08:16:40;13.38;;;2.80;;
39676;SDS011;27789;50.840;4.386;2022-10-22T08:19:05;7.85;;;2.78;;
39676;SDS011;27789;50.840;4.386;2022-10-22T08:21:31;8.70;;;2.13;;
39676;SDS011;27789;50.840;4.386;2022-10-22T08:23:56;19.52;;;2.90;;
39676;SDS011;27789;50.840;4.386;2022-10-22T08:26:22;13.13;;;2.30;;
39676;SDS011;27789;50.840;4.386;2022-10-22T08:28:48;6.57;;;1.35;;
39676;SDS011;27789;50.840;4.386;2022-10-22T08:31:13;8.70;;;2.03;;
39676;SDS011;27789;50.840;4.386;2022-10-22T08:33:39;11.07;;;2.20;;
39676;SDS011;27789;50.840;4.386;2022-10-22T08:36:05;13.10;;;2.17;;
39676;SDS011;27789;50.840;4.386;2022-10-22T08:38:32;10.07;;;2.28;;
39676;SDS011;27789;50.840;4.386;2022-10-22T08:41:05;9.60;;;2.55;;
39676;SDS011;27789;50.840;4.386;2022-10-22T08:48:58;8.60;;;2.30;;
39676;SDS011;27789;50.840;4.386;2022-10-22T08:51:27;8.18;;;2.10;;
39676;SDS011;27789;50.840;4.386;2022-10-22T08:56:47;15.88;;;2.72;;
39676;SDS011;27789;50.840;4.386;2022-10-22T08:59:33;10.95;;;2.38;;
39676;SDS011;27789;50.840;4.386;2022-10-22T09:07:46;11.38;;;2.80;;
39676;SDS011;27789;50.840;4.386;2022-10-22T09:10:15;11.70;;;2.88;;
39676;SDS011;27789;50.840;4.386;2022-10-22T09:12:42;10.55;;;2.38;;
39676;SDS011;27789;50.840;4.386;2022-10-22T09:15:12;19.77;;;2.55;;
39676;SDS011;27789;50.840;4.386;2022-10-22T09:25:39;10.35;;;2.38;;
39676;SDS011;27789;50.840;4.386;2022-10-22T09:28:07;8.82;;;2.10;;
39676;SDS011;27789;50.840;4.386;2022-10-22T09:30:34;12.68;;;2.47;;
39676;SDS011;27789;50.840;4.386;2022-10-22T09:35:32;11.25;;;2.70;;
39676;SDS011;27789;50.840;4.386;2022-10-22T09:38:01;10.07;;;2.05;;
39676;SDS011;27789;50.840;4.386;2022-10-22T09:40:39;14.02;;;2.28;;
39676;SDS011;27789;50.840;4.386;2022-10-22T09:43:11;11.98;;;2.60;;
39676;SDS011;27789;50.840;4.386;2022-10-22T09:45:38;7.50;;;2.38;;
39676;SDS011;27789;50.840;4.386;2022-10-22T09:53:34;15.70;;;3.15;;
39676;SDS011;27789;50.840;4.386;2022-10-22T09:56:05;9.85;;;2.50;;
39676;SDS011;27789;50.840;4.386;2022-10-22T09:58:40;9.75;;;2.90;;
39676;SDS011;27789;50.840;4.386;2022-10-22T10:01:14;9.98;;;2.70;;
39676;SDS011;27789;50.840;4.386;2022-10-22T10:03:41;16.90;;;3.45;;
39676;SDS011;27789;50.840;4.386;2022-10-22T10:06:07;11.85;;;2.45;;
39676;SDS011;27789;50.840;4.386;2022-10-22T10:08:32;10.18;;;2.42;;
39676;SDS011;27789;50.840;4.386;2022-10-22T10:10:59;11.20;;;2.45;;
39676;SDS011;27789;50.840;4.386;2022-10-22T10:13:40;11.27;;;3.72;;
39676;SDS011;27789;50.840;4.386;2022-10-22T10:23:49;10.75;;;2.60;;
39676;SDS011;27789;50.840;4.386;2022-10-22T10:39:56;11.32;;;2.53;;
39676;SDS011;27789;50.840;4.386;2022-10-22T10:44:52;10.05;;;2.55;;
39676;SDS011;27789;50.840;4.386;2022-10-22T10:53:13;11.45;;;2.75;;
39676;SDS011;27789;50.840;4.386;2022-10-22T10:56:17;9.35;;;2.50;;
39676;SDS011;27789;50.840;4.386;2022-10-22T11:07:11;13.20;;;2.38;;
39676;SDS011;27789;50.840;4.386;2022-10-22T11:09:44;9.40;;;2.55;;
39676;SDS011;27789;50.840;4.386;2022-10-22T11:12:16;9.55;;;2.17;;
39676;SDS011;27789;50.840;4.386;2022-10-22T11:17:25;8.05;;;2.50;;
39676;SDS011;27789;50.840;4.386;2022-10-22T11:22:42;9.15;;;2.17;;
39676;SDS011;27789;50.840;4.386;2022-10-22T11:30:13;10.30;;;2.13;;
39676;SDS011;27789;50.840;4.386;2022-10-22T11:32:42;7.25;;;2.55;;
39676;SDS011;27789;50.840;4.386;2022-10-22T11:35:13;5.75;;;1.92;;
39676;SDS011;27789;50.840;4.386;2022-10-22T11:37:42;10.57;;;2.00;;
39676;SDS011;27789;50.840;4.386;2022-10-22T11:40:18;9.90;;;2.38;;
39676;SDS011;27789;50.840;4.386;2022-10-22T11:58:25;9.57;;;2.72;;
39676;SDS011;27789;50.840;4.386;2022-10-22T12:11:14;7.65;;;2.10;;
39676;SDS011;27789;50.840;4.386;2022-10-22T12:18:57;4.82;;;2.13;;
39676;SDS011;27789;50.840;4.386;2022-10-22T12:21:38;8.87;;;2.30;;
39676;SDS011;27789;50.840;4.386;2022-10-22T12:24:05;7.15;;;2.13;;
39676;SDS011;27789;50.840;4.386;2022-10-22T12:26:36;4.80;;;1.85;;
39676;SDS011;27789;50.840;4.386;2022-10-22T12:29:05;5.78;;;1.85;;
39676;SDS011;27789;50.840;4.386;2022-10-22T12:31:36;7.75;;;2.38;;
39676;SDS011;27789;50.840;4.386;2022-10-22T12:34:03;7.43;;;2.38;;
39676;SDS011;27789;50.840;4.386;2022-10-22T12:36:30;7.40;;;1.73;;
39676;SDS011;27789;50.840;4.386;2022-10-22T12:39:08;6.30;;;1.73;;
39676;SDS011;27789;50.840;4.386;2022-10-22T12:41:37;5.93;;;1.80;;
39676;SDS011;27789;50.840;4.386;2022-10-22T12:44:04;7.40;;;1.70;;
39676;SDS011;27789;50.840;4.386;2022-10-22T12:46:31;6.45;;;1.50;;
39676;SDS011;27789;50.840;4.386;2022-10-22T12:48:59;8.10;;;2.47;;
39676;SDS011;27789;50.840;4.386;2022-10-22T12:51:27;9.35;;;1.77;;
39676;SDS011;27789;50.840;4.386;2022-10-22T12:53:54;8.63;;;1.80;;
39676;SDS011;27789;50.840;4.386;2022-10-22T12:56:26;4.35;;;1.83;;
39676;SDS011;27789;50.840;4.386;2022-10-22T12:59:17;7.38;;;2.05;;
39676;SDS011;27789;50.840;4.386;2022-10-22T13:01:43;4.82;;;1.75;;
39676;SDS011;27789;50.840;4.386;2022-10-22T13:04:18;4.95;;;1.35;;
39676;SDS011;27789;50.840;4.386;2022-10-22T13:06:50;3.30;;;1.38;;
39676;SDS011;27789;50.840;4.386;2022-10-22T13:09:36;5.93;;;1.83;;
39676;SDS011;27789;50.840;4.386;2022-10-22T13:12:09;5.47;;;1.73;;
39676;SDS011;27789;50.840;4.386;2022-10-22T13:14:41;6.75;;;1.75;;
39676;SDS011;27789;50.840;4.386;2022-10-22T13:17:12;7.57;;;1.70;;
39676;SDS011;27789;50.840;4.386;2022-10-22T13:19:53;6.13;;;1.40;;
39676;SDS011;27789;50.840;4.386;2022-10-22T13:22:30;7.10;;;1.38;;
39676;SDS011;27789;50.840;4.386;2022-10-22T13:24:56;5.38;;;1.80;;
39676;SDS011;27789;50.840;4.386;2022-10-22T13:27:33;6.15;;;1.60;;
39676;SDS011;27789;50.840;4.386;2022-10-22T13:30:20;5.80;;;1.70;;
39676;SDS011;27789;50.840;4.386;2022-10-22T13:32:49;8.70;;;1.70;;
39676;SDS011;27789;50.840;4.386;2022-10-22T13:35:22;6.15;;;2.70;;
39676;SDS011;27789;50.840;4.386;2022-10-22T13:37:49;5.38;;;1.65;;
39676;SDS011;27789;50.840;4.386;2022-10-22T13:40:15;5.57;;;1.75;;
39676;SDS011;27789;50.840;4.386;2022-10-22T13:42:41;7.50;;;1.90;;
39676;SDS011;27789;50.840;4.386;2022-10-22T13:45:06;4.97;;;1.90;;
39676;SDS011;27789;50.840;4.386;2022-10-22T13:47:32;6.40;;;1.55;;
39676;SDS011;27789;50.840;4.386;2022-10-22T13:49:59;6.70;;;1.58;;
39676;SDS011;27789;50.840;4.386;2022-10-22T13:57:51;7.60;;;2.00;;
39676;SDS011;27789;50.840;4.386;2022-10-22T14:00:20;9.60;;;2.78;;
39676;SDS011;27789;50.840;4.386;2022-10-22T14:02:47;8.70;;;1.73;;
39676;SDS011;27789;50.840;4.386;2022-10-22T14:05:16;5.15;;;1.90;;
39676;SDS011;27789;50.840;4.386;2022-10-22T14:07:42;6.13;;;1.80;;
39676;SDS011;27789;50.840;4.386;2022-10-22T14:12:46;5.32;;;2.08;;
39676;SDS011;27789;50.840;4.386;2022-10-22T14:15:13;4.03;;;1.65;;
39676;SDS011;27789;50.840;4.386;2022-10-22T14:17:41;5.95;;;1.70;;
39676;SDS011;27789;50.840;4.386;2022-10-22T14:20:14;6.32;;;1.92;;
39676;SDS011;27789;50.840;4.386;2022-10-22T14:22:43;8.52;;;1.98;;
39676;SDS011;27789;50.840;4.386;2022-10-22T14:25:17;7.38;;;2.28;;
39676;SDS011;27789;50.840;4.386;2022-10-22T14:27:45;8.07;;;2.22;;
39676;SDS011;27789;50.840;4.386;2022-10-22T14:30:15;5.50;;;1.63;;
39676;SDS011;27789;50.840;4.386;2022-10-22T14:32:42;7.32;;;1.60;;
39676;SDS011;27789;50.840;4.386;2022-10-22T14:35:12;6.32;;;1.67;;
39676;SDS011;27789;50.840;4.386;2022-10-22T14:37:40;6.20;;;1.70;;
39676;SDS011;27789;50.840;4.386;2022-10-22T14:40:06;8.05;;;2.08;;
39676;SDS011;27789;50.840;4.386;2022-10-22T14:42:36;5.22;;;1.85;;
39676;SDS011;27789;50.840;4.386;2022-10-22T14:47:45;5.70;;;1.67;;
39676;SDS011;27789;50.840;4.386;2022-10-22T14:50:11;10.68;;;2.13;;
39676;SDS011;27789;50.840;4.386;2022-10-22T14:52:38;11.85;;;2.13;;
39676;SDS011;27789;50.840;4.386;2022-10-22T14:55:04;8.70;;;2.00;;
39676;SDS011;27789;50.840;4.386;2022-10-22T14:57:30;4.30;;;1.60;;
39676;SDS011;27789;50.840;4.386;2022-10-22T14:59:56;6.60;;;1.90;;
39676;SDS011;27789;50.840;4.386;2022-10-22T15:02:21;10.88;;;1.65;;
39676;SDS011;27789;50.840;4.386;2022-10-22T15:04:47;6.78;;;2.03;;
39676;SDS011;27789;50.840;4.386;2022-10-22T15:07:13;7.90;;;2.00;;
39676;SDS011;27789;50.840;4.386;2022-10-22T15:09:40;8.25;;;1.95;;
39676;SDS011;27789;50.840;4.386;2022-10-22T15:12:05;11.40;;;2.20;;
39676;SDS011;27789;50.840;4.386;2022-10-22T15:14:31;5.15;;;1.52;;
39676;SDS011;27789;50.840;4.386;2022-10-22T15:16:57;4.85;;;1.85;;
39676;SDS011;27789;50.840;4.386;2022-10-22T15:19:23;6.18;;;2.10;;
39676;SDS011;27789;50.840;4.386;2022-10-22T15:21:49;6.53;;;1.70;;
39676;SDS011;27789;50.840;4.386;2022-10-22T15:24:14;6.82;;;2.08;;
39676;SDS011;27789;50.840;4.386;2022-10-22T15:26:40;9.32;;;1.80;;
39676;SDS011;27789;50.840;4.386;2022-10-22T15:29:06;8.38;;;2.28;;
39676;SDS011;27789;50.840;4.386;2022-10-22T15:34:22;7.10;;;1.98;;
39676;SDS011;27789;50.840;4.386;2022-10-22T15:36:49;6.80;;;1.92;;
39676;SDS011;27789;50.840;4.386;2022-10-22T15:39:15;8.15;;;1.80;;
39676;SDS011;27789;50.840;4.386;2022-10-22T15:41:41;8.90;;;2.30;;
39676;SDS011;27789;50.840;4.386;2022-10-22T15:44:06;17.27;;;2.47;;
39676;SDS011;27789;50.840;4.386;2022-10-22T15:46:38;6.07;;;1.80;;
39676;SDS011;27789;50.840;4.386;2022-10-22T15:49:04;5.35;;;2.33;;
39676;SDS011;27789;50.840;4.386;2022-10-22T15:51:29;5.93;;;2.03;;
39676;SDS011;27789;50.840;4.386;2022-10-22T15:53:56;10.40;;;1.98;;
39676;SDS011;27789;50.840;4.386;2022-10-22T15:56:23;7.78;;;2.40;;
39676;SDS011;27789;50.840;4.386;2022-10-22T15:58:54;11.00;;;2.53;;
39676;SDS011;27789;50.840;4.386;2022-10-22T16:01:21;5.97;;;1.83;;
39676;SDS011;27789;50.840;4.386;2022-10-22T16:03:49;5.28;;;1.77;;
39676;SDS011;27789;50.840;4.386;2022-10-22T16:06:28;9.40;;;2.22;;
39676;SDS011;27789;50.840;4.386;2022-10-22T16:08:56;9.80;;;2.70;;
39676;SDS011;27789;50.840;4.386;2022-10-22T16:11:23;11.45;;;2.53;;
39676;SDS011;27789;50.840;4.386;2022-10-22T16:13:52;8.38;;;2.10;;
39676;SDS011;27789;50.840;4.386;2022-10-22T16:16:26;9.13;;;2.10;;
39676;SDS011;27789;50.840;4.386;2022-10-22T16:18:54;6.55;;;1.77;;
39676;SDS011;27789;50.840;4.386;2022-10-22T16:21:20;6.78;;;2.00;;
39676;SDS011;27789;50.840;4.386;2022-10-22T16:23:47;9.05;;;2.33;;
39676;SDS011;27789;50.840;4.386;2022-10-22T16:26:13;12.27;;;3.03;;
39676;SDS011;27789;50.840;4.386;2022-10-22T16:28:40;7.15;;;2.65;;
39676;SDS011;27789;50.840;4.386;2022-10-22T16:31:07;10.93;;;2.38;;
39676;SDS011;27789;50.840;4.386;2022-10-22T16:33:35;9.30;;;2.55;;
39676;SDS011;27789;50.840;4.386;2022-10-22T16:36:02;6.68;;;2.03;;
39676;SDS011;27789;50.840;4.386;2022-10-22T16:38:28;13.82;;;2.60;;
39676;SDS011;27789;50.840;4.386;2022-10-22T16:40:53;10.02;;;3.10;;
39676;SDS011;27789;50.840;4.386;2022-10-22T16:43:34;5.35;;;2.10;;
39676;SDS011;27789;50.840;4.386;2022-10-22T16:46:00;8.40;;;2.33;;
39676;SDS011;27789;50.840;4.386;2022-10-22T16:48:25;11.15;;;2.83;;
39676;SDS011;27789;50.840;4.386;2022-10-22T16:50:51;10.15;;;2.90;;
39676;SDS011;27789;50.840;4.386;2022-10-22T16:53:17;7.03;;;3.00;;
39676;SDS011;27789;50.840;4.386;2022-10-22T16:55:42;6.55;;;2.42;;
39676;SDS011;27789;50.840;4.386;2022-10-22T16:58:08;6.80;;;2.40;;
39676;SDS011;27789;50.840;4.386;2022-10-22T17:00:33;9.50;;;2.85;;
39676;SDS011;27789;50.840;4.386;2022-10-22T17:02:59;9.02;;;4.32;;
39676;SDS011;27789;50.840;4.386;2022-10-22T17:05:25;18.60;;;5.78;;
39676;SDS011;27789;50.840;4.386;2022-10-22T17:07:50;21.60;;;8.15;;
39676;SDS011;27789;50.840;4.386;2022-10-22T17:10:17;12.35;;;5.75;;
39676;SDS011;27789;50.840;4.386;2022-10-22T17:12:47;11.13;;;4.65;;
39676;SDS011;27789;50.840;4.386;2022-10-22T17:15:13;10.85;;;6.07;;
39676;SDS011;27789;50.840;4.386;2022-10-22T17:17:39;7.40;;;3.75;;
39676;SDS011;27789;50.840;4.386;2022-10-22T17:20:12;8.35;;;4.75;;
39676;SDS011;27789;50.840;4.386;2022-10-22T17:22:38;12.75;;;5.25;;
39676;SDS011;27789;50.840;4.386;2022-10-22T17:25:08;15.32;;;6.45;;